Time;durP1;ratioP1;P1;durP2;ratioP2;P2;SDS_P1;SDS_P2;PMS_P1;PMS_P2;Temp;Humidity;BMP_temperature;BMP_pressure;BME280_temperature;BME280_humidity;BME280_pressure;Samples;Min_cycle;Max_cycle;Signal;HPM_P1;HPM_P2
2023/03/23 00:04:26;;;;;;;10.70;6.23;;;11.30;99.90;;;;;;2610652;54;20363;-74
2023/03/23 00:10:14;;;;;;;6.27;5.53;;;11.40;99.90;;;;;;2611710;54;20511;-74
2023/03/23 00:16:02;;;;;;;7.40;5.50;;;11.50;99.90;;;;;;2612094;54;20145;-74
2023/03/23 00:21:53;;;;;;;5.70;4.30;;;11.60;99.90;;;;;;2611785;54;20167;-73
2023/03/23 00:27:41;;;;;;;7.67;4.73;;;11.50;99.90;;;;;;2611922;54;20423;-73
2023/03/23 00:33:33;;;;;;;6.47;4.00;;;11.70;99.90;;;;;;2611629;54;20210;-73
2023/03/23 00:39:24;;;;;;;6.37;4.60;;;11.70;99.90;;;;;;2612116;54;20382;-73
2023/03/23 00:55:25;;;;;;;4.90;4.40;;;12.00;99.90;;;;;;2611741;54;20688;-73
2023/03/23 01:01:12;;;;;;;4.83;4.20;;;12.20;99.90;;;;;;2611304;54;21085;-73
2023/03/23 01:04:15;;;;;;;7.17;4.13;;;12.30;99.90;;;;;;2609948;54;20402;-73
2023/03/23 01:06:43;;;;;;;5.20;3.80;;;12.10;99.90;;;;;;2610688;54;20166;-72
2023/03/23 01:12:30;;;;;;;5.47;4.50;;;12.10;99.90;;;;;;2611412;54;21065;-74
2023/03/23 01:18:17;;;;;;;5.37;4.20;;;12.10;99.90;;;;;;2611244;54;20414;-75
2023/03/23 01:24:06;;;;;;;6.00;4.03;;;12.10;99.90;;;;;;2610126;54;20126;-74
2023/03/23 01:29:53;;;;;;;5.43;3.97;;;12.00;99.90;;;;;;2612874;54;20391;-74
2023/03/23 01:35:40;;;;;;;8.60;3.90;;;12.00;99.90;;;;;;2611992;54;20122;-73
2023/03/23 01:41:28;;;;;;;3.93;3.40;;;12.10;99.90;;;;;;2612178;54;20219;-74
2023/03/23 01:44:31;;;;;;;4.63;3.37;;;12.10;99.90;;;;;;2612356;47;20416;-73
2023/03/23 01:46:57;;;;;;;10.70;3.80;;;12.00;99.90;;;;;;2613055;54;20427;-74
2023/03/23 01:52:46;;;;;;;5.63;3.43;;;12.10;99.90;;;;;;2613886;46;20150;-73
2023/03/23 01:58:36;;;;;;;3.60;3.23;;;11.90;99.90;;;;;;2614630;54;20375;-74
2023/03/23 02:04:25;;;;;;;5.17;3.33;;;12.00;99.90;;;;;;2607467;54;20538;-75
2023/03/23 02:10:13;;;;;;;4.37;3.03;;;12.10;99.90;;;;;;2612969;54;20402;-76
2023/03/23 02:29:08;;;;;;;3.33;2.87;;;12.20;99.90;;;;;;2612939;54;20440;-76
2023/03/23 02:35:02;;;;;;;5.33;3.80;;;12.10;99.90;;;;;;2613541;39;20766;-78
2023/03/23 02:40:52;;;;;;;4.87;3.50;;;11.90;99.90;;;;;;2612783;54;20419;-76
2023/03/23 02:50:12;;;;;;;6.03;4.03;;;11.90;99.90;;;;;;2614519;54;20422;-76
2023/03/23 02:56:02;;;;;;;5.40;3.60;;;11.90;99.90;;;;;;2612741;54;20446;-75
2023/03/23 03:19:20;;;;;;;5.23;2.90;;;11.80;99.90;;;;;;2610901;54;20581;-76
2023/03/23 03:25:09;;;;;;;5.03;3.30;;;11.70;99.90;;;;;;2611536;54;20586;-77
2023/03/23 03:31:03;;;;;;;4.37;3.10;;;11.80;99.90;;;;;;2611379;54;20418;-74
2023/03/23 03:36:54;;;;;;;4.47;3.53;;;11.90;99.90;;;;;;2611765;54;20468;-75
2023/03/23 03:42:43;;;;;;;3.10;2.70;;;11.90;99.90;;;;;;2611876;54;20450;-75
2023/03/23 03:45:28;;;;;;;3.90;2.87;;;12.00;99.90;;;;;;2612458;54;20438;-75
2023/03/23 03:47:54;;;;;;;3.53;2.90;;;12.10;99.90;;;;;;2613403;54;20435;-74
2023/03/23 03:53:41;;;;;;;5.03;3.20;;;12.20;99.90;;;;;;2612384;54;20238;-74
2023/03/23 03:59:30;;;;;;;4.77;2.53;;;12.20;99.90;;;;;;2612412;54;20161;-74
2023/03/23 04:05:18;;;;;;;4.53;3.70;;;12.20;99.90;;;;;;2612436;54;20399;-75
2023/03/23 04:11:07;;;;;;;3.30;3.00;;;12.20;99.90;;;;;;2612491;54;20395;-74
2023/03/23 04:16:56;;;;;;;12.93;4.80;;;12.30;99.90;;;;;;2613790;54;20412;-70
2023/03/23 04:22:48;;;;;;;4.50;4.10;;;12.30;99.90;;;;;;2612198;54;20532;-69
2023/03/23 04:28:36;;;;;;;3.97;3.30;;;12.40;99.90;;;;;;2612507;54;20973;-70
2023/03/23 04:34:25;;;;;;;4.87;4.37;;;12.30;99.90;;;;;;2612222;54;20129;-70
2023/03/23 04:40:14;;;;;;;4.17;3.60;;;12.30;99.90;;;;;;2612499;54;20387;-70
2023/03/23 04:50:03;;;;;;;3.83;3.37;;;12.40;99.90;;;;;;2615260;39;21087;-70
2023/03/23 04:55:51;;;;;;;4.30;3.17;;;12.40;99.90;;;;;;2614034;54;20977;-70
2023/03/23 05:01:45;;;;;;;4.43;3.70;;;12.40;99.90;;;;;;2612698;54;20130;-69
2023/03/23 05:07:33;;;;;;;3.90;3.60;;;12.40;99.90;;;;;;2613747;54;20427;-71
2023/03/23 05:13:21;;;;;;;4.40;3.70;;;12.30;99.90;;;;;;2613183;54;20415;-70
2023/03/23 05:19:09;;;;;;;7.57;4.03;;;12.40;99.90;;;;;;2612917;54;20379;-71
2023/03/23 05:25:02;;;;;;;4.10;3.30;;;12.40;99.90;;;;;;2613386;54;20162;-72
2023/03/23 05:30:50;;;;;;;4.60;3.17;;;12.40;99.90;;;;;;2612734;54;20416;-71
2023/03/23 05:36:37;;;;;;;3.93;3.20;;;12.50;99.90;;;;;;2613801;54;20138;-70
2023/03/23 05:42:25;;;;;;;3.47;3.17;;;12.50;99.90;;;;;;2613349;39;20693;-69
2023/03/23 05:45:31;;;;;;;3.40;3.10;;;12.40;99.90;;;;;;2610919;47;20420;-71
2023/03/23 05:47:56;;;;;;;4.40;4.00;;;12.50;99.90;;;;;;2610513;54;21123;-70
2023/03/23 05:53:44;;;;;;;3.40;3.10;;;12.40;99.90;;;;;;2610961;54;20163;-70
2023/03/23 05:59:33;;;;;;;4.10;3.70;;;12.40;99.90;;;;;;2610910;54;20122;-71
2023/03/23 06:05:22;;;;;;;4.13;3.73;;;12.40;99.90;;;;;;2611121;54;20479;-70
2023/03/23 06:11:09;;;;;;;4.03;3.50;;;12.40;99.90;;;;;;2610576;54;20407;-70
2023/03/23 06:16:56;;;;;;;3.93;3.20;;;12.40;99.90;;;;;;2610647;54;20275;-73
2023/03/23 06:22:45;;;;;;;4.90;4.30;;;12.50;99.90;;;;;;2610460;54;20121;-69
2023/03/23 06:28:33;;;;;;;4.60;4.17;;;12.60;99.90;;;;;;2613179;54;20386;-68
2023/03/23 06:34:21;;;;;;;4.83;4.33;;;12.60;99.90;;;;;;2612652;54;20422;-70
2023/03/23 06:40:10;;;;;;;8.03;3.93;;;12.60;99.90;;;;;;2612764;54;20923;-70
2023/03/23 06:50:03;;;;;;;5.00;4.10;;;12.80;99.90;;;;;;2614163;54;20403;-70
2023/03/23 06:52:38;;;;;;;4.93;4.47;;;12.80;99.90;;;;;;2611896;54;20396;-70
2023/03/23 06:55:04;;;;;;;3.73;3.40;;;12.80;99.90;;;;;;2609354;54;20419;-70
2023/03/23 07:00:56;;;;;;;4.50;4.10;;;12.90;99.90;;;;;;2610537;54;20519;-70
2023/03/23 07:06:44;;;;;;;7.73;4.90;;;12.90;99.90;;;;;;2610655;54;20391;-70
2023/03/23 07:12:33;;;;;;;4.80;4.37;;;13.10;99.90;;;;;;2609189;54;20154;-70
2023/03/23 07:18:21;;;;;;;6.67;5.13;;;13.00;99.90;;;;;;2612725;54;20387;-70
2023/03/23 07:24:13;;;;;;;7.73;4.57;;;13.10;99.90;;;;;;2611741;39;20765;-69
2023/03/23 07:30:01;;;;;;;10.03;5.10;;;13.00;99.90;;;;;;2610375;54;20965;-71
2023/03/23 07:35:48;;;;;;;9.17;5.03;;;13.10;99.90;;;;;;2611654;54;20230;-71
2023/03/23 07:41:36;;;;;;;4.40;4.10;;;13.20;99.90;;;;;;2612672;54;20166;-71
2023/03/23 07:50:46;;;;;;;7.00;4.20;;;13.10;99.90;;;;;;2611488;54;21016;-71
2023/03/23 07:56:35;;;;;;;6.07;5.00;;;13.20;99.90;;;;;;2614852;39;20447;-70
2023/03/23 08:02:24;;;;;;;4.53;3.67;;;13.20;99.90;;;;;;2613619;54;20415;-69
2023/03/23 08:08:12;;;;;;;7.93;4.37;;;13.30;99.90;;;;;;2610663;54;20415;-70
2023/03/23 08:14:00;;;;;;;4.53;3.90;;;13.30;99.90;;;;;;2609502;54;20161;-71
2023/03/23 08:19:47;;;;;;;5.30;4.63;;;13.30;99.90;;;;;;2612598;54;20149;-70
2023/03/23 08:25:35;;;;;;;6.97;5.00;;;13.40;99.90;;;;;;2612557;54;20266;-70
2023/03/23 08:31:24;;;;;;;5.63;5.13;;;13.60;99.90;;;;;;2612320;54;20134;-70
2023/03/23 08:37:12;;;;;;;4.70;4.30;;;13.60;99.90;;;;;;2610312;54;20386;-68
2023/03/23 08:42:59;;;;;;;4.43;4.13;;;13.80;99.90;;;;;;2613200;54;20135;-70
2023/03/23 08:48:59;;;;;;;7.50;4.57;;;13.90;99.90;;;;;;2610337;46;20135;-71
2023/03/23 08:54:47;;;;;;;7.43;4.87;;;14.00;99.90;;;;;;2612023;54;20731;-70
2023/03/23 09:00:34;;;;;;;4.50;4.20;;;14.10;99.90;;;;;;2610955;54;20481;-70
2023/03/23 09:06:22;;;;;;;5.40;4.90;;;14.00;98.30;;;;;;2611369;54;21748;-70
2023/03/23 09:12:09;;;;;;;5.53;5.03;;;14.00;97.70;;;;;;2611763;54;21057;-70
2023/03/23 09:17:57;;;;;;;8.73;4.70;;;14.00;97.60;;;;;;2611831;54;20403;-70
2023/03/23 09:23:45;;;;;;;5.40;4.80;;;13.90;99.90;;;;;;2610921;54;20493;-69
2023/03/23 09:29:33;;;;;;;6.40;5.90;;;13.70;99.90;;;;;;2611938;54;20398;-70
2023/03/23 09:35:23;;;;;;;6.10;5.50;;;13.80;99.90;;;;;;2612260;54;20663;-69
2023/03/23 09:51:39;;;;;;;6.00;5.57;;;13.90;99.30;;;;;;2608760;46;20414;-69
2023/03/23 10:04:16;;;;;;;8.80;6.43;;;13.20;99.90;;;;;;2610533;54;20929;-69
2023/03/23 10:10:06;;;;;;;4.40;1.97;;;10.80;99.90;;;;;;2611514;46;20422;-70
2023/03/23 10:15:55;;;;;;;8.30;2.20;;;10.10;99.90;;;;;;2610324;54;20391;-69
2023/03/23 10:21:51;;;;;;;3.80;2.43;;;10.30;99.90;;;;;;2611626;54;20579;-71
2023/03/23 10:27:46;;;;;;;7.87;2.40;;;10.40;99.90;;;;;;2612079;54;20523;-70
2023/03/23 10:33:44;;;;;;;4.70;1.77;;;10.60;99.90;;;;;;2613161;39;20764;-70
2023/03/23 10:46:05;;;;;;;6.50;2.07;;;10.50;99.90;;;;;;2610284;54;20402;-70
2023/03/23 10:58:29;;;;;;;6.27;3.17;;;10.80;99.90;;;;;;2610331;54;20474;-71
2023/03/23 11:04:19;;;;;;;2.90;2.10;;;11.50;99.90;;;;;;2611822;54;20378;-71
2023/03/23 11:17:03;;;;;;;4.67;1.70;;;10.70;99.90;;;;;;2611006;54;20426;-71
2023/03/23 11:22:50;;;;;;;3.50;2.23;;;10.50;99.90;;;;;;2609752;54;20425;-72
2023/03/23 11:34:57;;;;;;;3.67;2.40;;;10.40;99.90;;;;;;2611315;54;20383;-71
2023/03/23 11:40:52;;;;;;;7.07;3.43;;;10.40;99.90;;;;;;2607999;47;20398;-71
2023/03/23 11:50:51;;;;;;;7.90;4.90;;;10.80;99.90;;;;;;2610654;54;20504;-72
2023/03/23 11:56:43;;;;;;;9.23;5.73;;;10.60;99.90;;;;;;2611819;39;20474;-70
2023/03/23 12:02:56;;;;;;;5.80;4.60;;;11.00;99.90;;;;;;2611304;54;20415;-71
2023/03/23 12:09:16;;;;;;;7.17;2.67;;;11.10;99.90;;;;;;2612746;54;20390;-71
2023/03/23 12:32:49;;;;;;;6.67;2.80;;;10.80;99.90;;;;;;2611364;54;20399;-71
2023/03/23 12:45:12;;;;;;;5.03;2.70;;;10.90;99.90;;;;;;2612460;54;20416;-72
2023/03/23 12:51:26;;;;;;;2.93;2.40;;;11.20;99.90;;;;;;2612323;54;20380;-71
2023/03/23 13:04:13;;;;;;;3.50;2.20;;;11.90;99.90;;;;;;2608849;54;20454;-72
2023/03/23 13:29:21;;;;;;;4.53;2.30;;;11.90;99.90;;;;;;2611194;54;20465;-73
2023/03/23 13:35:16;;;;;;;6.67;2.30;;;12.50;99.90;;;;;;2611451;54;20961;-70
2023/03/23 13:41:10;;;;;;;4.70;2.70;;;12.40;99.90;;;;;;2610784;54;20527;-71
2023/03/23 13:50:51;;;;;;;4.03;2.77;;;12.50;99.90;;;;;;2611618;54;20655;-72
2023/03/23 14:09:42;;;;;;;3.37;2.80;;;12.70;99.90;;;;;;2610603;54;20395;-71
2023/03/23 14:15:31;;;;;;;4.70;3.07;;;12.90;99.90;;;;;;2609190;54;20911;-71
2023/03/23 14:32:25;;;;;;;6.20;3.60;;;13.50;99.90;;;;;;2611321;54;20519;-71
2023/03/23 14:38:26;;;;;;;4.80;4.20;;;15.40;99.90;;;;;;2608873;54;20378;-71
2023/03/23 14:54:08;;;;;;;5.23;4.77;;;15.00;99.90;;;;;;2607543;54;20452;-72
2023/03/23 14:59:56;;;;;;;4.77;4.37;;;14.50;99.90;;;;;;2605395;54;20355;-71
2023/03/23 15:05:48;;;;;;;13.33;6.20;;;14.50;99.90;;;;;;2608246;46;20544;-71
2023/03/23 15:11:39;;;;;;;6.97;5.33;;;14.30;99.90;;;;;;2609994;54;20399;-72
2023/03/23 15:17:29;;;;;;;5.57;4.37;;;14.40;99.90;;;;;;2611349;54;20519;-71
2023/03/23 15:36:18;;;;;;;4.23;3.93;;;16.10;99.90;;;;;;2613470;54;20383;-71
2023/03/23 15:42:05;;;;;;;4.50;4.20;;;17.00;99.90;;;;;;2612508;54;20415;-71
2023/03/23 15:47:57;;;;;;;8.47;4.40;;;16.00;99.90;;;;;;2611662;54;20230;-71
2023/03/23 15:53:45;;;;;;;5.87;5.27;;;16.80;99.90;;;;;;2613150;54;20474;-71
2023/03/23 15:57:06;;;;;;;4.83;4.40;;;16.60;99.90;;;;;;2611438;54;20435;-71
2023/03/23 16:03:03;;;;;;;8.20;4.80;;;16.50;99.90;;;;;;2613679;54;20354;-71
2023/03/23 16:08:52;;;;;;;5.03;4.50;;;16.40;99.90;;;;;;2606434;54;20391;-71
2023/03/23 16:14:40;;;;;;;6.33;4.23;;;16.30;99.90;;;;;;2612070;54;20453;-72
2023/03/23 16:20:29;;;;;;;5.10;4.70;;;15.40;99.90;;;;;;2612777;39;20542;-71
2023/03/23 16:26:17;;;;;;;5.43;4.67;;;15.60;99.90;;;;;;2612045;39;20749;-70
2023/03/23 16:32:11;;;;;;;6.80;5.33;;;15.60;99.90;;;;;;2611096;54;20150;-71
2023/03/23 16:37:58;;;;;;;4.67;4.07;;;15.80;99.90;;;;;;2611787;54;20415;-71
2023/03/23 16:43:46;;;;;;;5.20;4.07;;;15.10;99.90;;;;;;2613120;39;20381;-72
2023/03/23 16:49:34;;;;;;;7.10;4.80;;;14.70;99.90;;;;;;2607808;39;20476;-71
2023/03/23 16:52:35;;;;;;;7.63;4.57;;;14.50;99.90;;;;;;2605980;47;20439;-71
2023/03/23 16:55:01;;;;;;;6.73;6.03;;;14.20;99.90;;;;;;2606442;54;20243;-72
2023/03/23 17:00:50;;;;;;;4.20;3.80;;;14.00;99.90;;;;;;2609889;54;20250;-71
2023/03/23 17:06:38;;;;;;;6.37;5.00;;;14.00;99.90;;;;;;2612106;54;20419;-71
2023/03/23 17:12:26;;;;;;;7.83;5.17;;;13.90;99.90;;;;;;2612162;54;20150;-70
2023/03/23 17:18:15;;;;;;;8.87;6.07;;;13.80;99.90;;;;;;2611508;54;20395;-71
2023/03/23 17:24:02;;;;;;;5.70;4.73;;;13.70;99.90;;;;;;2614239;39;20505;-71
2023/03/23 17:29:50;;;;;;;10.23;5.13;;;13.50;99.90;;;;;;2612577;54;20142;-71
2023/03/23 17:35:37;;;;;;;6.70;4.90;;;13.40;99.90;;;;;;2612516;54;20130;-71
2023/03/23 17:41:25;;;;;;;10.70;5.57;;;13.50;99.90;;;;;;2611328;54;20130;-70
2023/03/23 17:47:14;;;;;;;8.50;4.87;;;13.50;99.90;;;;;;2612047;54;20166;-71
2023/03/23 17:57:08;;;;;;;7.33;5.30;;;13.40;99.90;;;;;;2611478;54;20527;-71
2023/03/23 18:02:56;;;;;;;9.70;4.90;;;13.40;99.90;;;;;;2612654;54;20403;-70
2023/03/23 18:08:44;;;;;;;5.63;4.20;;;13.40;99.90;;;;;;2608900;54;22393;-71
2023/03/23 18:14:31;;;;;;;8.30;5.70;;;13.40;99.90;;;;;;2612023;54;20139;-70
2023/03/23 18:20:20;;;;;;;6.00;4.27;;;13.20;99.90;;;;;;2610266;39;20528;-70
2023/03/23 18:26:11;;;;;;;6.20;4.83;;;13.20;99.90;;;;;;2610605;54;20423;-72
2023/03/23 18:31:59;;;;;;;7.03;4.33;;;13.20;99.90;;;;;;2609857;54;20387;-70
2023/03/23 18:37:46;;;;;;;7.30;5.00;;;13.10;99.90;;;;;;2609888;54;20588;-70
2023/03/23 18:43:35;;;;;;;6.20;4.50;;;13.10;99.90;;;;;;2610125;54;20114;-71
2023/03/23 18:49:22;;;;;;;9.30;5.10;;;13.00;99.90;;;;;;2608826;54;20427;-70
2023/03/23 18:52:29;;;;;;;6.17;5.03;;;12.90;99.90;;;;;;2607177;54;20976;-72
2023/03/23 18:58:38;;;;;;;5.17;4.67;;;13.00;99.90;;;;;;2611604;54;20442;-70
2023/03/23 19:04:30;;;;;;;9.40;4.83;;;13.20;99.90;;;;;;2612533;54;20520;-72
2023/03/23 19:10:19;;;;;;;11.43;5.90;;;13.50;99.90;;;;;;2611838;54;20386;-71
2023/03/23 19:16:07;;;;;;;9.60;6.03;;;13.20;99.90;;;;;;2612633;54;20475;-71
2023/03/23 19:21:55;;;;;;;7.90;4.90;;;13.20;99.90;;;;;;2611595;54;20126;-71
2023/03/23 19:27:42;;;;;;;6.60;5.70;;;13.30;99.90;;;;;;2612051;54;20371;-71
2023/03/23 19:33:30;;;;;;;7.00;6.40;;;13.10;99.90;;;;;;2612017;54;20157;-70
2023/03/23 19:39:18;;;;;;;19.47;13.30;;;13.10;99.90;;;;;;2611896;54;20154;-71
2023/03/23 19:45:07;;;;;;;6.40;5.80;;;13.00;99.90;;;;;;2613139;54;21104;-71
2023/03/23 19:50:56;;;;;;;8.20;5.10;;;13.10;99.90;;;;;;2613837;54;20442;-70
2023/03/23 19:54:07;;;;;;;8.83;6.07;;;13.20;99.90;;;;;;2612568;54;20412;-71
2023/03/23 19:56:33;;;;;;;7.83;6.00;;;13.00;99.90;;;;;;2611748;47;20421;-71
2023/03/23 20:02:21;;;;;;;5.90;5.40;;;12.90;99.90;;;;;;2610603;54;20414;-71
2023/03/23 20:08:10;;;;;;;8.80;6.10;;;12.80;99.90;;;;;;2610689;54;20174;-72
2023/03/23 20:13:57;;;;;;;5.97;5.37;;;12.70;99.90;;;;;;2610814;54;20511;-72
2023/03/23 20:19:45;;;;;;;18.00;5.83;;;12.70;99.90;;;;;;2611453;54;20223;-71
2023/03/23 20:25:33;;;;;;;10.90;5.70;;;12.70;99.90;;;;;;2612800;54;20644;-71
2023/03/23 20:31:26;;;;;;;6.23;5.40;;;12.80;99.90;;;;;;2610328;54;20130;-72
2023/03/23 20:37:19;;;;;;;5.53;4.80;;;13.00;99.90;;;;;;2612311;54;20500;-71
2023/03/23 20:43:08;;;;;;;6.27;5.33;;;13.20;99.90;;;;;;2611506;54;21206;-71
2023/03/23 20:48:56;;;;;;;6.00;5.40;;;13.40;99.90;;;;;;2612207;39;20780;-70
2023/03/23 20:58:39;;;;;;;6.33;5.43;;;13.50;99.90;;;;;;2612231;54;20858;-71
2023/03/23 21:04:29;;;;;;;6.20;5.40;;;13.50;99.90;;;;;;2611607;46;20476;-71
2023/03/23 21:10:16;;;;;;;6.33;5.30;;;13.50;99.90;;;;;;2609705;54;20434;-70
2023/03/23 21:16:11;;;;;;;7.17;5.67;;;13.40;99.90;;;;;;2612214;54;20177;-71
2023/03/23 21:21:59;;;;;;;5.60;5.07;;;13.50;99.90;;;;;;2611953;54;20555;-70
2023/03/23 21:27:48;;;;;;;6.17;5.07;;;13.50;99.90;;;;;;2614071;54;20154;-71
2023/03/23 21:33:36;;;;;;;7.30;5.60;;;13.50;99.90;;;;;;2613404;46;20378;-70
2023/03/23 21:39:25;;;;;;;6.83;4.60;;;13.40;99.90;;;;;;2613574;54;20125;-70
2023/03/23 21:45:17;;;;;;;6.30;4.50;;;13.20;99.90;;;;;;2613865;54;20404;-71
2023/03/23 21:51:12;;;;;;;4.70;3.10;;;13.00;99.90;;;;;;2612904;54;20530;-71
2023/03/23 21:54:08;;;;;;;8.00;4.30;;;13.00;99.90;;;;;;2613708;54;20411;-70
2023/03/23 21:56:34;;;;;;;6.50;3.33;;;12.90;99.90;;;;;;2612327;46;20898;-70
2023/03/23 22:02:23;;;;;;;9.57;4.13;;;12.90;99.90;;;;;;2611247;39;20509;-71
2023/03/23 22:08:11;;;;;;;8.80;3.97;;;12.80;99.90;;;;;;2611947;54;20630;-72
2023/03/23 22:13:59;;;;;;;3.90;2.90;;;12.60;99.90;;;;;;2614281;54;20155;-71
2023/03/23 22:19:50;;;;;;;6.33;3.27;;;12.50;99.90;;;;;;2612473;54;20395;-70
2023/03/23 22:25:38;;;;;;;8.10;3.10;;;12.40;99.90;;;;;;2613474;54;20479;-71
2023/03/23 22:31:29;;;;;;;3.60;2.53;;;12.40;99.90;;;;;;2611958;54;20790;-70
2023/03/23 22:37:17;;;;;;;6.73;2.87;;;12.30;99.90;;;;;;2612609;54;20488;-69
2023/03/23 22:43:05;;;;;;;3.80;2.80;;;12.10;99.90;;;;;;2614053;46;20427;-71
2023/03/23 22:48:53;;;;;;;5.37;3.30;;;12.10;99.90;;;;;;2613643;54;20190;-70
2023/03/23 22:58:40;;;;;;;7.60;3.70;;;11.90;99.90;;;;;;2611800;54;20429;-70
2023/03/23 23:04:28;;;;;;;5.73;3.57;;;11.80;99.90;;;;;;2611581;54;20392;-72
2023/03/23 23:10:15;;;;;;;7.67;3.50;;;11.70;99.90;;;;;;2611488;54;20772;-72
2023/03/23 23:16:04;;;;;;;5.00;2.30;;;11.70;99.90;;;;;;2611985;54;20175;-70
2023/03/23 23:21:54;;;;;;;6.07;3.23;;;11.60;99.90;;;;;;2612068;54;20399;-71
2023/03/23 23:27:42;;;;;;;4.93;3.90;;;11.40;99.90;;;;;;2612279;54;20395;-71
2023/03/23 23:33:29;;;;;;;6.20;3.27;;;11.40;99.90;;;;;;2612524;54;20130;-71
2023/03/23 23:39:17;;;;;;;7.17;3.30;;;11.40;99.90;;;;;;2612528;54;20166;-71
2023/03/23 23:45:06;;;;;;;5.70;2.47;;;11.40;99.90;;;;;;2609821;39;20533;-71
2023/03/23 23:50:54;;;;;;;6.50;3.10;;;11.50;99.90;;;;;;2612321;54;20420;-73
2023/03/23 23:56:51;;;;;;;4.27;2.60;;;11.50;99.90;;;;;;2609991;54;20257;-73
